createdAt,value
2022-09-15T00:01:42.137Z,97041.25
2022-09-15T00:06:44.082Z,97042.72
2022-09-15T00:11:46.074Z,97053.19
2022-09-15T00:16:47.912Z,97053.19
2022-09-15T00:21:50.024Z,97059.00
2022-09-15T00:26:51.915Z,97063.44
2022-09-15T00:31:53.824Z,97069.94
2022-09-15T00:36:55.605Z,97070.41
2022-09-15T00:41:57.410Z,97072.44
2022-09-15T00:47:18.260Z,97072.09
2022-09-15T00:52:36.272Z,97064.16
2022-09-15T00:57:56.150Z,97064.94
2022-09-15T01:02:59.241Z,97066.53
2022-09-15T01:08:10.082Z,97074.84
2022-09-15T01:13:14.723Z,97072.00
2022-09-15T01:18:22.406Z,97078.25
2022-09-15T01:23:42.807Z,97082.81
2022-09-15T01:29:21.861Z,97090.66
2022-09-15T01:34:25.981Z,97090.31
2022-09-15T01:39:35.153Z,97096.47
2022-09-15T01:44:47.905Z,97087.72
2022-09-15T01:50:11.815Z,97076.88
2022-09-15T01:55:27.036Z,97074.97
2022-09-15T02:00:32.717Z,97084.41
2022-09-15T02:05:45.132Z,97083.84
2022-09-15T02:11:13.002Z,97078.47
2022-09-15T02:16:22.484Z,97068.47
2022-09-15T02:21:33.790Z,97101.47
2022-09-15T02:26:39.292Z,97089.97
2022-09-15T02:31:43.011Z,97091.78
2022-09-15T02:36:46.391Z,97093.63
2022-09-15T02:41:49.251Z,97104.53
2022-09-15T02:46:51.463Z,97093.94
2022-09-15T02:51:53.383Z,97096.78
2022-09-15T02:56:55.216Z,97117.94
2022-09-15T03:01:59.087Z,97112.72
2022-09-15T03:07:00.968Z,97108.03
2022-09-15T03:12:02.760Z,97107.81
2022-09-15T03:17:04.936Z,97098.94
2022-09-15T03:22:07.201Z,97090.88
2022-09-15T03:27:09.450Z,97097.69
2022-09-15T03:32:11.425Z,97096.44
2022-09-15T03:37:13.293Z,97098.03
2022-09-15T03:42:15.432Z,97099.88
2022-09-15T03:47:17.564Z,97090.88
2022-09-15T03:52:19.299Z,97098.16
2022-09-15T03:57:21.227Z,97097.81
2022-09-15T04:02:23.239Z,97105.09
2022-09-15T04:07:25.772Z,97095.41
2022-09-15T04:12:29.482Z,97101.88
2022-09-15T04:17:31.313Z,97095.28
2022-09-15T04:22:33.150Z,97095.88
2022-09-15T04:27:36.529Z,97099.06
2022-09-15T04:32:38.443Z,97097.47
2022-09-15T04:37:40.200Z,97099.50
2022-09-15T04:42:41.996Z,97105.41
2022-09-15T04:47:43.776Z,97108.69
2022-09-15T04:52:45.535Z,97100.84
2022-09-15T04:57:47.301Z,97102.44
2022-09-15T05:02:49.047Z,97106.09
2022-09-15T05:07:51.962Z,97114.94
2022-09-15T05:12:54.042Z,97112.56
2022-09-15T05:17:55.825Z,97115.84
2022-09-15T05:22:57.646Z,97125.94
2022-09-15T05:27:59.572Z,97123.22
2022-09-15T05:33:01.397Z,97131.06
2022-09-15T05:38:03.597Z,97130.84
2022-09-15T05:43:05.647Z,97134.47
2022-09-15T05:48:07.450Z,97131.63
2022-09-15T05:53:09.507Z,97134.03
2022-09-15T05:58:11.882Z,97135.75
2022-09-15T06:03:15.847Z,97147.94
2022-09-15T06:08:17.764Z,97143.50
2022-09-15T06:13:19.558Z,97147.94
2022-09-15T06:18:21.362Z,97158.97
2022-09-15T06:23:23.452Z,97148.63
2022-09-15T06:28:25.251Z,97146.38
2022-09-15T06:33:27.698Z,97150.94
2022-09-15T06:38:30.477Z,97138.19
2022-09-15T06:43:33.421Z,97141.16
2022-09-15T06:48:36.712Z,97137.88
2022-09-15T06:53:39.518Z,97146.66
2022-09-15T06:58:43.084Z,97145.28
2022-09-15T07:03:44.993Z,97145.75
2022-09-15T07:08:48.021Z,97147.34
2022-09-15T07:13:50.342Z,97147.13
2022-09-15T07:18:55.802Z,97143.53
2022-09-15T07:23:58.432Z,97140.41
2022-09-15T07:29:02.756Z,97160.34
2022-09-15T07:34:05.542Z,97158.19
2022-09-15T07:39:07.393Z,97172.06
2022-09-15T07:44:11.705Z,97175.16
2022-09-15T07:49:13.684Z,97180.72
2022-09-15T07:54:20.771Z,97178.78
2022-09-15T07:59:24.282Z,97188.69
2022-09-15T08:04:26.195Z,97191.75
2022-09-15T08:09:28.160Z,97192.22
2022-09-15T08:14:31.869Z,97190.09
2022-09-15T08:19:35.605Z,97193.41
2022-09-15T08:24:37.506Z,97194.53
2022-09-15T08:29:39.350Z,97194.78
2022-09-15T08:34:41.217Z,97197.50
2022-09-15T08:39:43.120Z,97203.28
2022-09-15T08:44:48.166Z,97219.09
2022-09-15T08:50:14.661Z,97218.16
2022-09-15T08:55:45.904Z,97224.88
2022-09-15T09:00:51.923Z,97223.94
2022-09-15T09:05:57.995Z,97230.22
2022-09-15T09:11:10.003Z,97229.19
2022-09-15T09:16:56.324Z,97227.84
2022-09-15T09:22:23.267Z,97217.97
2022-09-15T09:27:32.508Z,97222.09
2022-09-15T09:32:40.811Z,97213.56
2022-09-15T09:37:43.163Z,97218.25
2022-09-15T09:42:45.543Z,97218.25
2022-09-15T09:47:47.543Z,97214.59
2022-09-15T09:52:49.422Z,97213.78
2022-09-15T09:57:51.454Z,97214.59
2022-09-15T10:02:53.228Z,97218.13
2022-09-15T10:08:03.021Z,97210.84
2022-09-15T10:13:04.944Z,97211.75
2022-09-15T10:18:07.710Z,97213.00
2022-09-15T10:23:18.822Z,97213.34
2022-09-15T10:28:23.816Z,97214.47
2022-09-15T10:33:28.187Z,97213.53
2022-09-15T10:38:37.333Z,97209.53
2022-09-15T10:43:41.667Z,97214.53
2022-09-15T10:48:53.579Z,97216.94
2022-09-15T10:54:07.259Z,97215.28
2022-09-15T10:59:28.343Z,97215.16
2022-09-15T11:04:32.987Z,97218.59
2022-09-15T11:09:48.339Z,97211.50
2022-09-15T11:14:58.881Z,97202.41
2022-09-15T11:20:14.741Z,97209.69
2022-09-15T11:25:24.321Z,97213.22
2022-09-15T11:30:35.392Z,97206.50
2022-09-15T11:36:02.963Z,97204.13
2022-09-15T11:41:17.679Z,97207.06
2022-09-15T11:46:28.667Z,97200.34
2022-09-15T11:51:36.627Z,97198.88
2022-09-15T11:56:47.529Z,97199.22
2022-09-15T12:01:59.321Z,97192.94
2022-09-15T12:07:20.738Z,97190.66
2022-09-15T12:12:24.692Z,97193.06
2022-09-15T12:17:52.465Z,97185.53
2022-09-15T12:23:07.173Z,97178.91
2022-09-15T12:28:24.341Z,97182.75
2022-09-15T12:33:57.939Z,97183.41
2022-09-15T12:39:02.290Z,97184.19
2022-09-15T12:44:36.471Z,97184.19
2022-09-15T12:49:44.727Z,97175.97
2022-09-15T12:55:02.188Z,97181.56
2022-09-15T13:00:23.470Z,97174.34
2022-09-15T13:05:44.083Z,97178.00
2022-09-15T13:11:22.802Z,97179.16
2022-09-15T13:16:33.853Z,97178.38
2022-09-15T13:21:39.714Z,97182.59
2022-09-15T13:26:44.807Z,97179.88
2022-09-15T13:32:01.144Z,97187.97
2022-09-15T13:43:24.345Z,97175.91
2022-09-15T13:48:43.198Z,97175.16
2022-09-15T13:53:58.125Z,97186.69
2022-09-15T13:59:10.153Z,97193.06
2022-09-15T14:09:26.804Z,97196.81
2022-09-15T14:14:28.540Z,97207.88
2022-09-15T14:19:35.870Z,97205.25
2022-09-15T14:24:40.334Z,97211.19
2022-09-15T14:29:45.001Z,97218.75
2022-09-15T14:39:57.407Z,97213.97
2022-09-15T14:50:34.268Z,97221.69
2022-09-15T14:56:00.006Z,97209.38
2022-09-15T15:01:22.625Z,97205.19
2022-09-15T15:06:49.762Z,97195.50
2022-09-15T15:11:55.355Z,97201.53
2022-09-15T15:17:06.120Z,97204.28
2022-09-15T15:22:14.184Z,97196.44
2022-09-15T15:27:34.089Z,97194.16
2022-09-15T15:32:35.943Z,97195.63
2022-09-15T15:37:37.683Z,97190.38
2022-09-15T15:42:59.265Z,97194.03
2022-09-15T15:48:04.073Z,97194.72
2022-09-15T15:53:05.947Z,97198.34
2022-09-15T15:58:10.382Z,97199.59
2022-09-15T16:03:13.748Z,97204.59
2022-09-15T16:08:26.901Z,97201.19
2022-09-15T16:13:29.395Z,97189.47
2022-09-15T16:18:31.424Z,97193.69
2022-09-15T16:23:33.290Z,97202.91
2022-09-15T16:28:35.261Z,97209.75
2022-09-15T16:33:38.265Z,97208.72
2022-09-15T16:38:43.982Z,97211.00
2022-09-15T16:43:47.052Z,97214.06
2022-09-15T16:48:48.932Z,97205.63
2022-09-15T16:53:54.186Z,97204.03
2022-09-15T16:59:00.249Z,97210.50
2022-09-15T17:04:03.812Z,97211.75
2022-09-15T17:09:05.628Z,97211.19
2022-09-15T17:14:12.482Z,97218.25
2022-09-15T17:19:14.265Z,97206.97
2022-09-15T17:24:17.510Z,97208.56
2022-09-15T17:29:19.272Z,97210.63
2022-09-15T17:34:21.108Z,97217.66
2022-09-15T17:39:23.182Z,97231.78
2022-09-15T17:44:25.042Z,97232.22
2022-09-15T17:49:27.484Z,97235.50
2022-09-15T17:54:31.315Z,97235.94
2022-09-15T17:59:33.194Z,97240.03
2022-09-15T18:04:35.023Z,97236.25
2022-09-15T18:09:37.030Z,97247.63
2022-09-15T18:14:39.230Z,97248.50
2022-09-15T18:19:41.220Z,97259.41
2022-09-15T18:24:43.097Z,97263.47
2022-09-15T18:29:44.967Z,97267.56
2022-09-15T18:34:47.670Z,97265.00
2022-09-15T18:39:49.537Z,97267.84
2022-09-15T18:44:51.561Z,97266.03
2022-09-15T18:49:54.131Z,97265.25
2022-09-15T18:54:55.967Z,97275.13
2022-09-15T18:59:57.821Z,97279.78
2022-09-15T19:04:59.567Z,97286.66
2022-09-15T19:10:01.754Z,97279.03
2022-09-15T19:15:12.098Z,97287.91
2022-09-15T19:20:15.743Z,97288.38
2022-09-15T19:25:17.643Z,97291.19
2022-09-15T19:30:19.751Z,97290.41
2022-09-15T19:35:21.611Z,97287.97
2022-09-15T19:40:23.943Z,97289.78
2022-09-15T19:45:25.862Z,97283.53
2022-09-15T19:50:27.931Z,97286.38
2022-09-15T19:55:29.803Z,97291.38
2022-09-15T20:00:31.601Z,97293.22
2022-09-15T20:05:33.336Z,97295.81
2022-09-15T20:10:35.091Z,97292.63
2022-09-15T20:15:37.090Z,97288.41
2022-09-15T20:20:40.311Z,97298.06
2022-09-15T20:25:42.261Z,97306.94
2022-09-15T20:30:44.003Z,97303.31
2022-09-15T20:35:46.044Z,97305.91
2022-09-15T20:40:47.963Z,97309.31
2022-09-15T20:46:03.884Z,97297.84
2022-09-15T20:51:08.611Z,97297.63
2022-09-15T20:56:10.544Z,97309.69
2022-09-15T21:01:16.005Z,97321.97
2022-09-15T21:06:20.121Z,97315.75
2022-09-15T21:11:24.031Z,97328.00
2022-09-15T21:16:28.273Z,97333.88
2022-09-15T21:21:32.663Z,97331.53
2022-09-15T21:26:57.526Z,97343.28
2022-09-15T21:31:59.680Z,97344.56
2022-09-15T21:37:01.497Z,97350.66
2022-09-15T21:42:05.324Z,97339.03
2022-09-15T21:47:07.107Z,97341.06
2022-09-15T21:52:09.502Z,97347.09
2022-09-15T21:57:11.286Z,97342.22
2022-09-15T22:02:13.366Z,97350.88
2022-09-15T22:07:19.514Z,97352.31
2022-09-15T22:12:21.252Z,97361.97
2022-09-15T22:17:23.075Z,97361.16
2022-09-15T22:22:25.350Z,97360.78
2022-09-15T22:27:27.247Z,97362.59
2022-09-15T22:32:30.413Z,97366.81
2022-09-15T22:37:33.788Z,97353.75
2022-09-15T22:42:35.653Z,97360.56
2022-09-15T22:47:37.483Z,97368.41
2022-09-15T22:52:39.473Z,97367.59
2022-09-15T22:57:41.793Z,97369.41
2022-09-15T23:02:44.351Z,97367.81
2022-09-15T23:07:46.217Z,97370.44
2022-09-15T23:12:48.022Z,97378.06
2022-09-15T23:17:49.855Z,97378.28
2022-09-15T23:22:52.571Z,97381.91
2022-09-15T23:27:54.437Z,97377.69
2022-09-15T23:32:56.302Z,97381.09
2022-09-15T23:37:59.316Z,97385.53
2022-09-15T23:43:01.407Z,97380.28
2022-09-15T23:48:10.678Z,97373.69
2022-09-15T23:53:12.917Z,97376.50
2022-09-15T23:58:14.752Z,97368.88
